createdAt,value
2023-01-20T00:00:11.454Z,17.60
2023-01-20T00:03:36.550Z,17.60
2023-01-20T00:06:58.729Z,17.60
2023-01-20T00:10:20.932Z,17.60
2023-01-20T00:13:43.010Z,17.60
2023-01-20T00:17:05.184Z,17.60
2023-01-20T00:20:27.374Z,17.60
2023-01-20T00:23:50.248Z,17.60
2023-01-20T00:27:12.371Z,17.60
2023-01-20T00:30:34.623Z,17.50
2023-01-20T00:33:57.887Z,17.50
2023-01-20T00:37:20.050Z,17.60
2023-01-20T00:40:42.209Z,17.50
2023-01-20T00:44:04.395Z,17.50
2023-01-20T00:47:26.529Z,17.60
2023-01-20T00:50:48.742Z,17.60
2023-01-20T00:54:10.824Z,17.50
2023-01-20T00:57:33.012Z,17.50
2023-01-20T01:00:56.126Z,17.50
2023-01-20T01:04:18.281Z,17.50
2023-01-20T01:07:40.408Z,17.40
2023-01-20T01:11:03.153Z,17.40
2023-01-20T01:14:25.293Z,17.40
2023-01-20T01:17:47.466Z,17.40
2023-01-20T01:21:10.924Z,17.40
2023-01-20T01:24:33.403Z,17.40
2023-01-20T01:27:55.517Z,17.40
2023-01-20T01:31:19.014Z,17.40
2023-01-20T01:34:41.215Z,17.30
2023-01-20T01:38:03.345Z,17.30
2023-01-20T01:41:25.454Z,17.30
2023-01-20T01:45:06.507Z,17.30
2023-01-20T01:48:30.683Z,17.30
2023-01-20T01:52:01.264Z,17.30
2023-01-20T01:55:26.502Z,17.30
2023-01-20T01:58:50.258Z,17.30
2023-01-20T02:02:12.426Z,17.30
2023-01-20T02:05:38.619Z,17.20
2023-01-20T02:09:01.553Z,17.20
2023-01-20T02:12:23.960Z,17.20
2023-01-20T02:15:58.261Z,17.10
2023-01-20T02:19:49.863Z,17.20
2023-01-20T02:23:14.610Z,17.20
2023-01-20T02:26:44.356Z,17.20
2023-01-20T02:30:09.543Z,17.20
2023-01-20T02:33:33.326Z,17.20
2023-01-20T02:36:57.644Z,17.20
2023-01-20T02:40:45.933Z,17.20
2023-01-20T02:44:08.068Z,17.10
2023-01-20T02:47:34.249Z,17.10
2023-01-20T02:51:01.346Z,17.20
2023-01-20T02:54:25.367Z,17.20
2023-01-20T02:57:48.746Z,17.10
2023-01-20T03:01:13.534Z,17.10
2023-01-20T03:04:45.763Z,17.10
2023-01-20T03:08:09.883Z,17.10
2023-01-20T03:11:35.990Z,17.10
2023-01-20T03:14:58.398Z,17.10
2023-01-20T03:18:20.524Z,17.10
2023-01-20T03:21:42.871Z,17.10
2023-01-20T03:25:05.382Z,17.10
2023-01-20T03:28:27.537Z,17.10
2023-01-20T03:31:54.929Z,17.10
2023-01-20T03:35:17.603Z,17.10
2023-01-20T03:38:39.735Z,17.10
2023-01-20T03:42:07.142Z,17.10
2023-01-20T03:45:29.213Z,17.00
2023-01-20T03:49:00.883Z,17.10
2023-01-20T03:52:47.677Z,17.10
2023-01-20T03:56:10.704Z,17.10
2023-01-20T03:59:34.269Z,17.10
2023-01-20T04:02:58.595Z,17.10
2023-01-20T04:06:23.169Z,17.10
2023-01-20T04:09:47.593Z,17.10
2023-01-20T04:13:09.779Z,17.10
2023-01-20T04:16:31.941Z,17.10
2023-01-20T04:19:54.413Z,17.10
2023-01-20T04:23:22.471Z,17.10
2023-01-20T04:26:44.555Z,17.10
2023-01-20T04:30:07.098Z,17.00
2023-01-20T04:33:29.231Z,17.10
2023-01-20T04:36:51.355Z,17.10
2023-01-20T04:40:13.586Z,17.10
2023-01-20T04:43:35.786Z,17.10
2023-01-20T04:46:58.207Z,17.00
2023-01-20T04:50:20.513Z,17.00
2023-01-20T04:53:42.646Z,17.10
2023-01-20T04:57:04.783Z,17.00
2023-01-20T05:00:26.980Z,17.00
2023-01-20T05:03:49.164Z,17.00
2023-01-20T05:07:11.709Z,17.00
2023-01-20T05:10:34.150Z,17.00
2023-01-20T05:13:56.307Z,17.10
2023-01-20T05:17:18.665Z,17.10
2023-01-20T05:20:40.844Z,17.20
2023-01-20T05:24:03.007Z,17.20
2023-01-20T05:27:25.394Z,17.30
2023-01-20T05:30:48.569Z,17.40
2023-01-20T05:34:11.177Z,17.40
2023-01-20T05:37:33.359Z,17.50
2023-01-20T05:41:02.183Z,17.50
2023-01-20T05:44:24.360Z,17.60
2023-01-20T05:47:46.461Z,17.60
2023-01-20T05:51:08.661Z,17.60
2023-01-20T05:54:30.795Z,17.60
2023-01-20T05:57:52.981Z,17.60
2023-01-20T06:01:15.260Z,17.70
2023-01-20T06:04:37.452Z,17.70
2023-01-20T06:08:00.542Z,17.70
2023-01-20T06:11:22.712Z,17.70
2023-01-20T06:14:44.864Z,17.70
2023-01-20T06:18:07.082Z,17.70
2023-01-20T06:21:29.268Z,17.70
2023-01-20T06:24:52.156Z,17.70
2023-01-20T06:28:14.297Z,17.70
2023-01-20T06:31:36.657Z,17.70
2023-01-20T06:34:58.790Z,17.70
2023-01-20T06:38:21.483Z,17.80
2023-01-20T06:41:43.596Z,17.90
2023-01-20T06:45:06.023Z,18.10
2023-01-20T06:48:28.287Z,18.20
2023-01-20T06:51:50.506Z,18.30
2023-01-20T06:55:13.201Z,18.30
2023-01-20T06:58:35.536Z,18.30
2023-01-20T07:01:57.751Z,18.40
2023-01-20T07:05:20.117Z,18.40
2023-01-20T07:08:43.555Z,18.40
2023-01-20T07:12:05.801Z,18.40
2023-01-20T07:15:27.933Z,18.40
2023-01-20T07:18:50.903Z,18.40
2023-01-20T07:22:13.027Z,18.40
2023-01-20T07:25:37.913Z,18.40
2023-01-20T07:29:00.068Z,18.50
2023-01-20T07:32:22.434Z,18.40
2023-01-20T07:35:44.589Z,18.40
2023-01-20T07:39:06.816Z,18.30
2023-01-20T07:42:28.900Z,18.20
2023-01-20T07:45:54.117Z,18.20
2023-01-20T07:49:16.199Z,18.20
2023-01-20T07:52:38.300Z,18.10
2023-01-20T07:56:01.691Z,18.10
2023-01-20T07:59:23.881Z,18.20
2023-01-20T08:02:46.025Z,18.30
2023-01-20T08:06:09.812Z,18.30
2023-01-20T08:09:31.979Z,18.30
2023-01-20T08:12:54.125Z,18.30
2023-01-20T08:16:16.922Z,18.20
2023-01-20T08:19:39.091Z,18.10
2023-01-20T08:23:01.172Z,18.10
2023-01-20T08:26:27.324Z,18.00
2023-01-20T08:29:49.641Z,18.00
2023-01-20T08:33:11.796Z,18.00
2023-01-20T08:36:35.975Z,17.90
2023-01-20T08:39:58.113Z,18.00
2023-01-20T08:43:20.244Z,18.10
2023-01-20T08:46:43.080Z,18.20
2023-01-20T08:50:06.681Z,18.30
2023-01-20T08:53:28.822Z,18.40
2023-01-20T08:56:51.784Z,18.30
2023-01-20T09:00:14.288Z,18.30
2023-01-20T09:03:36.678Z,18.40
2023-01-20T09:06:58.848Z,18.50
2023-01-20T09:10:21.309Z,18.60
2023-01-20T09:13:43.538Z,18.80
2023-01-20T09:17:05.702Z,18.80
2023-01-20T09:20:28.924Z,18.90
2023-01-20T09:23:51.235Z,18.90
2023-01-20T09:27:13.443Z,18.80
2023-01-20T09:30:35.597Z,18.40
2023-01-20T09:33:57.744Z,18.20
2023-01-20T09:37:38.393Z,18.10
2023-01-20T09:41:28.354Z,17.90
2023-01-20T09:44:55.910Z,17.80
2023-01-20T09:48:39.884Z,17.80
2023-01-20T09:52:26.565Z,17.80
2023-01-20T09:55:53.302Z,17.80
2023-01-20T09:59:36.767Z,17.70
2023-01-20T10:03:29.464Z,17.70
2023-01-20T10:06:52.557Z,17.80
2023-01-20T10:10:14.859Z,17.80
2023-01-20T10:13:47.211Z,17.80
2023-01-20T10:17:12.693Z,17.80
2023-01-20T10:20:53.535Z,17.80
2023-01-20T10:24:31.031Z,17.80
2023-01-20T10:27:55.719Z,17.70
2023-01-20T10:31:21.735Z,17.70
2023-01-20T10:34:47.902Z,17.70
2023-01-20T10:38:19.277Z,17.70
2023-01-20T10:41:46.955Z,17.70
2023-01-20T10:45:32.260Z,17.70
2023-01-20T10:49:03.607Z,17.70
2023-01-20T10:52:25.871Z,17.70
2023-01-20T10:55:48.080Z,17.70
2023-01-20T10:59:14.837Z,17.70
2023-01-20T11:02:38.034Z,17.70
2023-01-20T11:06:00.761Z,17.70
2023-01-20T11:09:42.593Z,17.70
2023-01-20T11:13:04.740Z,17.70
2023-01-20T11:16:28.867Z,17.70
2023-01-20T11:19:51.141Z,17.70
2023-01-20T11:23:22.616Z,17.70
2023-01-20T11:26:44.945Z,17.70
2023-01-20T11:30:09.105Z,17.60
2023-01-20T11:33:31.329Z,17.60
2023-01-20T11:37:13.719Z,17.60
2023-01-20T11:40:35.860Z,17.60
2023-01-20T11:43:58.884Z,17.60
2023-01-20T11:47:25.028Z,17.60
2023-01-20T11:50:54.422Z,17.60
2023-01-20T11:54:18.711Z,17.60
2023-01-20T11:57:45.800Z,17.60
2023-01-20T12:01:08.395Z,17.60
2023-01-20T12:04:36.735Z,17.50
2023-01-20T12:08:00.238Z,17.50
2023-01-20T12:11:25.027Z,17.40
2023-01-20T12:14:49.296Z,17.50
2023-01-20T12:18:19.774Z,17.40
2023-01-20T12:21:44.230Z,17.40
2023-01-20T12:25:14.681Z,17.40
2023-01-20T12:28:55.393Z,17.40
2023-01-20T12:32:17.557Z,17.40
2023-01-20T12:35:43.244Z,17.40
2023-01-20T12:39:17.668Z,17.40
2023-01-20T12:42:49.155Z,17.40
2023-01-20T12:46:11.307Z,17.50
2023-01-20T12:49:45.662Z,17.60
2023-01-20T12:53:07.719Z,17.60
2023-01-20T12:56:30.214Z,17.60
2023-01-20T13:00:16.635Z,17.70
2023-01-20T13:03:38.999Z,17.70
2023-01-20T13:07:14.361Z,17.70
2023-01-20T13:10:50.937Z,17.60
2023-01-20T13:14:40.621Z,17.60
2023-01-20T13:18:13.224Z,17.60
2023-01-20T13:21:35.467Z,17.60
2023-01-20T13:24:58.652Z,17.60
2023-01-20T13:28:22.071Z,17.60
2023-01-20T13:31:45.654Z,17.60
2023-01-20T13:35:17.495Z,17.60
2023-01-20T13:38:39.784Z,17.60
2023-01-20T13:42:02.027Z,17.60
2023-01-20T13:45:24.730Z,17.60
2023-01-20T13:49:07.086Z,17.60
2023-01-20T13:52:48.000Z,17.60
2023-01-20T13:56:26.489Z,17.70
2023-01-20T13:59:49.075Z,17.80
2023-01-20T14:03:28.092Z,17.80
2023-01-20T14:06:51.507Z,17.80
2023-01-20T14:10:14.367Z,17.90
2023-01-20T14:13:36.608Z,17.80
2023-01-20T14:17:01.330Z,17.90
2023-01-20T14:20:24.900Z,17.90
2023-01-20T14:23:47.435Z,18.00
2023-01-20T14:27:11.946Z,18.00
2023-01-20T14:30:34.901Z,17.90
2023-01-20T14:33:59.083Z,17.90
2023-01-20T14:37:23.961Z,17.90
2023-01-20T14:40:48.933Z,17.90
2023-01-20T14:44:21.853Z,17.90
2023-01-20T14:47:43.988Z,17.90
2023-01-20T14:51:06.410Z,17.90
2023-01-20T14:54:45.241Z,17.80
2023-01-20T14:58:08.478Z,17.80
2023-01-20T15:01:32.485Z,17.80
2023-01-20T15:04:55.049Z,17.80
2023-01-20T15:08:18.676Z,17.80
2023-01-20T15:11:40.875Z,17.80
2023-01-20T15:15:12.124Z,17.70
2023-01-20T15:18:34.302Z,17.70
2023-01-20T15:22:10.356Z,17.80
2023-01-20T15:25:36.599Z,17.80
2023-01-20T15:28:58.820Z,17.70
2023-01-20T15:32:20.928Z,17.70
2023-01-20T15:35:43.129Z,17.70
2023-01-20T15:39:06.839Z,17.70
2023-01-20T15:42:29.007Z,17.70
2023-01-20T15:45:51.141Z,17.60
2023-01-20T15:49:14.863Z,17.70
2023-01-20T15:52:36.964Z,17.70
2023-01-20T15:55:59.619Z,17.70
2023-01-20T15:59:22.380Z,17.80
2023-01-20T16:02:44.644Z,17.80
2023-01-20T16:06:11.648Z,17.80
2023-01-20T16:09:37.162Z,17.80
2023-01-20T16:12:59.325Z,17.70
2023-01-20T16:16:23.005Z,17.70
2023-01-20T16:19:45.365Z,17.70
2023-01-20T16:23:07.520Z,17.70
2023-01-20T16:26:31.729Z,17.70
2023-01-20T16:29:54.589Z,17.70
2023-01-20T16:33:16.974Z,17.60
2023-01-20T16:36:39.179Z,17.60
2023-01-20T16:40:01.472Z,17.60
2023-01-20T16:43:24.135Z,17.50
2023-01-20T16:46:47.294Z,17.50
2023-01-20T16:50:12.375Z,17.50
2023-01-20T16:53:34.558Z,17.50
2023-01-20T16:56:56.710Z,17.50
2023-01-20T17:00:19.644Z,17.60
2023-01-20T17:03:42.344Z,17.60
2023-01-20T17:07:05.801Z,17.70
2023-01-20T17:10:30.304Z,17.70
2023-01-20T17:13:52.691Z,17.90
2023-01-20T17:17:15.011Z,17.90
2023-01-20T17:20:37.193Z,18.00
2023-01-20T17:24:00.823Z,18.10
2023-01-20T17:27:23.068Z,18.10
2023-01-20T17:30:45.275Z,18.00
2023-01-20T17:34:07.549Z,18.10
2023-01-20T17:37:30.028Z,18.10
2023-01-20T17:40:52.148Z,18.00
2023-01-20T17:44:14.391Z,18.00
2023-01-20T17:47:36.516Z,18.00
2023-01-20T17:50:59.451Z,18.20
2023-01-20T17:54:21.698Z,18.20
2023-01-20T17:57:43.882Z,18.30
2023-01-20T18:01:09.933Z,18.30
2023-01-20T18:04:32.229Z,18.40
2023-01-20T18:07:54.395Z,18.40
2023-01-20T18:11:16.602Z,18.40
2023-01-20T18:14:38.757Z,18.50
2023-01-20T18:18:01.180Z,18.40
2023-01-20T18:21:23.943Z,18.50
2023-01-20T18:24:46.050Z,18.50
2023-01-20T18:28:08.336Z,18.50
2023-01-20T18:31:32.141Z,18.70
2023-01-20T18:34:54.386Z,18.70
2023-01-20T18:38:16.523Z,18.70
2023-01-20T18:41:38.808Z,18.70
2023-01-20T18:45:00.920Z,18.80
2023-01-20T18:48:25.063Z,18.80
2023-01-20T18:51:47.266Z,18.80
2023-01-20T18:55:09.565Z,18.80
2023-01-20T18:58:32.754Z,18.80
2023-01-20T19:01:56.322Z,18.80
2023-01-20T19:05:19.150Z,18.80
2023-01-20T19:08:42.404Z,18.70
2023-01-20T19:12:04.815Z,18.80
2023-01-20T19:15:27.053Z,18.80
2023-01-20T19:18:56.039Z,18.80
2023-01-20T19:22:18.288Z,18.80
2023-01-20T19:25:40.528Z,18.70
2023-01-20T19:29:04.972Z,18.70
2023-01-20T19:32:27.194Z,18.70
2023-01-20T19:35:49.352Z,18.70
2023-01-20T19:39:11.445Z,18.70
2023-01-20T19:42:33.598Z,18.70
2023-01-20T19:45:55.767Z,18.60
2023-01-20T19:49:17.929Z,18.60
2023-01-20T19:52:40.080Z,18.60
2023-01-20T19:56:02.402Z,18.60
2023-01-20T19:59:24.509Z,18.50
2023-01-20T20:02:46.885Z,18.50
2023-01-20T20:06:23.087Z,18.50
2023-01-20T20:09:45.268Z,18.50
2023-01-20T20:13:07.437Z,18.40
2023-01-20T20:16:31.171Z,18.40
2023-01-20T20:19:53.244Z,18.30
2023-01-20T20:23:17.280Z,18.20
2023-01-20T20:26:40.133Z,18.10
2023-01-20T20:30:03.169Z,18.00
2023-01-20T20:33:25.349Z,17.90
2023-01-20T20:36:47.587Z,18.00
2023-01-20T20:40:10.194Z,18.00
2023-01-20T20:43:32.327Z,18.00
2023-01-20T20:46:54.514Z,18.00
2023-01-20T20:50:17.178Z,18.00
2023-01-20T20:53:39.971Z,18.00
2023-01-20T20:57:02.096Z,18.10
2023-01-20T21:00:28.130Z,18.00
2023-01-20T21:03:50.305Z,18.00
2023-01-20T21:07:13.415Z,18.00
2023-01-20T21:10:35.630Z,17.90
2023-01-20T21:13:57.954Z,17.90
2023-01-20T21:17:20.064Z,17.90
2023-01-20T21:20:42.291Z,17.90
2023-01-20T21:24:04.547Z,17.90
2023-01-20T21:27:26.656Z,17.90
2023-01-20T21:30:48.981Z,17.90
2023-01-20T21:34:14.657Z,17.80
2023-01-20T21:37:36.952Z,17.90
2023-01-20T21:41:03.475Z,17.90
2023-01-20T21:44:28.317Z,17.80
2023-01-20T21:47:50.485Z,17.80
2023-01-20T21:51:31.399Z,17.80
2023-01-20T21:54:53.491Z,17.80
2023-01-20T21:58:15.572Z,17.70
2023-01-20T22:01:38.071Z,17.80
2023-01-20T22:05:00.217Z,17.80
2023-01-20T22:08:22.407Z,17.70
2023-01-20T22:11:44.494Z,17.70
2023-01-20T22:15:06.976Z,17.70
2023-01-20T22:18:32.221Z,17.60
2023-01-20T22:21:54.548Z,17.60
2023-01-20T22:25:16.645Z,17.50
2023-01-20T22:28:41.439Z,17.60
2023-01-20T22:32:04.985Z,17.60
2023-01-20T22:35:27.216Z,17.50
2023-01-20T22:38:50.000Z,17.50
2023-01-20T22:42:12.114Z,17.50
2023-01-20T22:45:34.316Z,17.50
2023-01-20T22:48:57.358Z,17.40
2023-01-20T22:52:19.448Z,17.40
2023-01-20T22:55:55.910Z,17.40
2023-01-20T22:59:22.286Z,17.40
2023-01-20T23:02:44.522Z,17.40
2023-01-20T23:06:06.837Z,17.50
2023-01-20T23:09:29.083Z,17.50
2023-01-20T23:12:51.581Z,17.60
2023-01-20T23:16:14.993Z,17.50
2023-01-20T23:19:37.243Z,17.60
2023-01-20T23:22:59.396Z,17.60
2023-01-20T23:26:30.606Z,17.50
2023-01-20T23:29:55.743Z,17.50
2023-01-20T23:33:17.905Z,17.50
2023-01-20T23:36:40.049Z,17.50
2023-01-20T23:40:02.193Z,17.40
2023-01-20T23:43:24.320Z,17.40
2023-01-20T23:46:46.546Z,17.40
2023-01-20T23:50:09.128Z,17.40
2023-01-20T23:53:31.867Z,17.40
2023-01-20T23:56:54.018Z,17.30
